createdAt,value
2023-01-31T00:01:17.835Z,18.40
2023-01-31T00:04:09.097Z,16.83
2023-01-31T00:06:57.530Z,17.37
2023-01-31T00:09:45.976Z,17.57
2023-01-31T00:12:36.114Z,17.70
2023-01-31T00:15:24.659Z,18.77
2023-01-31T00:18:13.115Z,17.30
2023-01-31T00:21:07.035Z,18.27
2023-01-31T00:23:57.070Z,18.67
2023-01-31T00:26:45.606Z,18.77
2023-01-31T00:29:36.034Z,20.77
2023-01-31T00:32:26.736Z,18.57
2023-01-31T00:35:15.300Z,18.50
2023-01-31T00:38:03.774Z,18.47
2023-01-31T00:40:56.068Z,19.63
2023-01-31T00:43:44.507Z,19.77
2023-01-31T00:46:34.881Z,19.07
2023-01-31T00:49:23.979Z,20.07
2023-01-31T00:52:12.429Z,19.13
2023-01-31T00:55:00.866Z,19.50
2023-01-31T00:57:49.255Z,20.03
2023-01-31T01:00:37.712Z,19.10
2023-01-31T01:03:27.492Z,19.17
2023-01-31T01:06:16.744Z,19.60
2023-01-31T01:09:05.363Z,21.27
2023-01-31T01:11:54.019Z,20.97
2023-01-31T01:14:42.432Z,19.50
2023-01-31T01:17:31.339Z,20.07
2023-01-31T01:20:21.425Z,20.40
2023-01-31T01:23:09.890Z,20.93
2023-01-31T01:25:58.359Z,22.90
2023-01-31T01:28:47.185Z,21.03
2023-01-31T01:31:36.253Z,19.43
2023-01-31T01:34:25.117Z,22.80
2023-01-31T01:37:20.155Z,22.23
2023-01-31T01:40:10.296Z,20.53
2023-01-31T01:42:58.687Z,20.37
2023-01-31T01:45:47.333Z,21.27
2023-01-31T01:48:36.293Z,21.77
2023-01-31T01:51:25.738Z,21.77
2023-01-31T01:54:19.628Z,19.80
2023-01-31T01:57:10.023Z,20.57
2023-01-31T02:00:08.965Z,21.13
2023-01-31T02:03:00.456Z,19.10
2023-01-31T02:05:53.199Z,20.80
2023-01-31T02:08:44.293Z,20.50
2023-01-31T02:11:34.318Z,21.97
2023-01-31T02:14:23.512Z,20.07
2023-01-31T02:17:14.335Z,21.00
2023-01-31T02:20:15.010Z,22.57
2023-01-31T02:23:26.166Z,20.77
2023-01-31T02:26:57.279Z,20.63
2023-01-31T02:30:24.577Z,20.70
2023-01-31T02:33:26.154Z,20.73
2023-01-31T02:36:25.695Z,22.70
2023-01-31T02:39:27.260Z,21.50
2023-01-31T02:42:23.830Z,20.10
2023-01-31T02:45:21.699Z,19.83
2023-01-31T02:48:20.551Z,19.13
2023-01-31T02:51:15.725Z,19.47
2023-01-31T02:54:12.791Z,19.63
2023-01-31T02:57:00.347Z,19.47
2023-01-31T02:59:49.217Z,21.63
2023-01-31T03:02:37.786Z,20.07
2023-01-31T03:05:27.744Z,20.23
2023-01-31T03:08:22.974Z,19.13
2023-01-31T03:11:12.000Z,19.57
2023-01-31T03:14:10.291Z,19.00
2023-01-31T03:17:22.841Z,18.20
2023-01-31T03:20:16.122Z,18.87
2023-01-31T03:23:10.830Z,20.57
2023-01-31T03:26:01.209Z,18.57
2023-01-31T03:28:57.142Z,19.17
2023-01-31T03:31:49.982Z,20.33
2023-01-31T03:34:38.841Z,20.00
2023-01-31T03:37:35.388Z,18.57
2023-01-31T03:40:28.694Z,19.40
2023-01-31T03:43:26.535Z,17.07
2023-01-31T03:46:22.561Z,18.47
2023-01-31T03:49:15.248Z,19.27
2023-01-31T03:52:07.347Z,19.87
2023-01-31T03:55:02.024Z,18.40
2023-01-31T03:57:55.785Z,17.20
2023-01-31T04:00:45.566Z,18.17
2023-01-31T04:03:39.761Z,16.53
2023-01-31T04:06:28.751Z,17.90
2023-01-31T04:09:17.878Z,17.70
2023-01-31T04:12:07.070Z,16.40
2023-01-31T04:14:56.899Z,17.43
2023-01-31T04:17:45.670Z,16.60
2023-01-31T04:20:34.241Z,16.23
2023-01-31T04:23:22.796Z,15.60
2023-01-31T04:26:11.311Z,16.40
2023-01-31T04:28:59.754Z,16.60
2023-01-31T04:31:49.768Z,17.10
2023-01-31T04:34:38.301Z,15.60
2023-01-31T04:37:26.796Z,17.60
2023-01-31T04:40:15.446Z,15.07
2023-01-31T04:43:03.915Z,17.23
2023-01-31T04:45:52.568Z,14.17
2023-01-31T04:48:42.410Z,15.37
2023-01-31T04:51:30.989Z,15.33
2023-01-31T04:54:19.458Z,14.03
2023-01-31T04:57:07.980Z,14.20
2023-01-31T04:59:56.391Z,14.37
2023-01-31T05:02:44.911Z,14.27
2023-01-31T05:05:36.433Z,12.97
2023-01-31T05:08:25.234Z,13.53
2023-01-31T05:11:13.684Z,12.97
2023-01-31T05:14:02.177Z,13.48
2023-01-31T05:16:50.644Z,13.50
2023-01-31T05:19:39.114Z,12.77
2023-01-31T05:22:28.943Z,13.10
2023-01-31T05:25:17.505Z,13.57
2023-01-31T05:28:06.841Z,12.57
2023-01-31T05:30:55.962Z,12.73
2023-01-31T05:33:44.571Z,12.40
2023-01-31T05:36:33.056Z,13.30
2023-01-31T05:39:22.979Z,12.63
2023-01-31T05:42:11.529Z,12.00
2023-01-31T05:44:59.997Z,12.97
2023-01-31T05:47:48.508Z,11.50
2023-01-31T05:50:36.948Z,14.57
2023-01-31T05:53:25.372Z,12.77
2023-01-31T05:56:16.647Z,13.20
2023-01-31T05:59:05.154Z,13.30
2023-01-31T06:01:54.553Z,12.40
2023-01-31T06:04:43.032Z,11.90
2023-01-31T06:07:32.055Z,12.90
2023-01-31T06:10:21.254Z,12.37
2023-01-31T06:13:11.199Z,11.77
2023-01-31T06:15:59.724Z,11.07
2023-01-31T06:18:48.369Z,11.43
2023-01-31T06:21:36.848Z,10.03
2023-01-31T06:24:25.403Z,9.13
2023-01-31T06:27:13.997Z,11.03
2023-01-31T06:30:03.838Z,9.60
2023-01-31T06:32:52.222Z,8.80
2023-01-31T06:35:41.011Z,8.13
2023-01-31T06:38:30.432Z,9.03
2023-01-31T06:41:19.344Z,7.57
2023-01-31T06:44:07.803Z,8.60
2023-01-31T06:46:57.603Z,8.47
2023-01-31T06:49:46.101Z,9.10
2023-01-31T06:52:34.608Z,8.67
2023-01-31T06:55:23.120Z,9.83
2023-01-31T06:58:11.591Z,8.67
2023-01-31T07:01:05.978Z,8.87
2023-01-31T07:03:55.884Z,11.10
2023-01-31T07:06:44.331Z,11.90
2023-01-31T07:09:32.852Z,11.23
2023-01-31T07:12:21.272Z,12.63
2023-01-31T07:15:11.138Z,15.00
2023-01-31T07:18:00.302Z,15.23
2023-01-31T07:20:51.314Z,14.90
2023-01-31T07:23:39.776Z,13.13
2023-01-31T07:26:28.278Z,15.77
2023-01-31T07:29:16.709Z,14.73
2023-01-31T07:32:05.586Z,14.40
2023-01-31T07:34:54.035Z,13.90
2023-01-31T07:37:43.838Z,15.23
2023-01-31T07:40:32.223Z,13.90
2023-01-31T07:43:21.033Z,14.90
2023-01-31T07:46:12.559Z,13.80
2023-01-31T07:49:01.100Z,12.90
2023-01-31T07:51:49.576Z,14.03
2023-01-31T07:54:39.393Z,12.87
2023-01-31T07:57:27.845Z,12.00
2023-01-31T08:00:31.009Z,10.57
2023-01-31T08:03:35.173Z,10.40
2023-01-31T08:06:23.600Z,9.73
2023-01-31T08:09:12.365Z,9.27
2023-01-31T08:12:02.208Z,8.63
2023-01-31T08:14:50.648Z,9.57
2023-01-31T08:17:39.146Z,8.53
2023-01-31T08:20:27.689Z,7.43
2023-01-31T08:23:16.254Z,9.17
2023-01-31T08:26:06.625Z,8.03
2023-01-31T08:28:56.503Z,9.17
2023-01-31T08:31:45.344Z,7.67
2023-01-31T08:34:33.946Z,8.20
2023-01-31T08:37:22.374Z,7.67
2023-01-31T08:40:11.925Z,7.17
2023-01-31T08:43:01.683Z,7.20
2023-01-31T08:45:51.497Z,8.07
2023-01-31T08:48:42.091Z,8.67
2023-01-31T08:51:31.404Z,7.33
2023-01-31T08:54:19.923Z,8.13
2023-01-31T08:57:08.446Z,8.17
2023-01-31T08:59:56.973Z,9.33
2023-01-31T09:02:52.003Z,9.23
2023-01-31T09:05:40.461Z,9.03
2023-01-31T09:08:30.244Z,9.67
2023-01-31T09:11:19.964Z,9.47
2023-01-31T09:14:09.520Z,10.97
2023-01-31T09:16:58.016Z,10.03
2023-01-31T09:19:48.181Z,11.07
2023-01-31T09:22:37.265Z,9.93
2023-01-31T09:25:42.452Z,11.47
2023-01-31T09:28:34.115Z,10.87
2023-01-31T09:31:22.990Z,11.67
2023-01-31T09:34:11.796Z,11.70
2023-01-31T09:37:01.697Z,12.13
2023-01-31T09:39:50.162Z,12.13
2023-01-31T09:42:44.243Z,12.43
2023-01-31T09:45:35.016Z,14.30
2023-01-31T09:48:27.702Z,12.00
2023-01-31T09:51:18.108Z,13.43
2023-01-31T09:54:18.236Z,14.13
2023-01-31T09:57:17.317Z,16.73
2023-01-31T10:00:23.160Z,16.50
2023-01-31T10:03:27.158Z,18.17
2023-01-31T10:06:22.593Z,16.80
2023-01-31T10:09:20.510Z,17.00
2023-01-31T10:12:15.109Z,17.27
2023-01-31T10:15:07.720Z,16.90
2023-01-31T10:17:59.329Z,17.47
2023-01-31T10:20:51.275Z,17.73
2023-01-31T10:23:43.517Z,17.63
2023-01-31T10:26:38.166Z,15.17
2023-01-31T10:29:30.743Z,15.87
2023-01-31T10:32:27.844Z,16.30
2023-01-31T10:35:20.599Z,16.80
2023-01-31T10:38:16.611Z,16.17
2023-01-31T10:41:15.251Z,15.90
2023-01-31T10:44:08.410Z,15.67
2023-01-31T10:46:59.506Z,16.17
2023-01-31T10:49:49.995Z,16.17
2023-01-31T10:52:58.561Z,17.90
2023-01-31T10:56:00.291Z,18.37
2023-01-31T10:58:49.369Z,16.27
2023-01-31T11:01:39.229Z,18.53
2023-01-31T11:04:32.163Z,20.57
2023-01-31T11:07:21.604Z,18.77
2023-01-31T11:10:24.209Z,18.87
2023-01-31T11:13:20.208Z,20.83
2023-01-31T11:16:11.741Z,19.80
2023-01-31T11:19:04.148Z,21.05
2023-01-31T11:21:54.232Z,20.17
2023-01-31T11:24:48.391Z,18.13
2023-01-31T11:27:40.346Z,17.60
2023-01-31T11:30:32.581Z,17.70
2023-01-31T11:33:45.994Z,16.37
2023-01-31T11:36:45.739Z,16.60
2023-01-31T11:39:38.191Z,15.33
2023-01-31T11:42:26.865Z,13.85
2023-01-31T11:45:19.826Z,14.68
2023-01-31T11:48:12.260Z,13.98
2023-01-31T11:51:03.698Z,14.18
2023-01-31T11:53:53.922Z,14.30
2023-01-31T11:56:42.559Z,14.10
2023-01-31T11:59:32.339Z,15.20
2023-01-31T12:02:28.720Z,16.67
2023-01-31T12:05:19.519Z,15.75
2023-01-31T12:08:29.216Z,16.42
2023-01-31T12:11:30.226Z,16.63
2023-01-31T12:14:20.444Z,17.60
2023-01-31T12:17:14.847Z,17.42
2023-01-31T12:20:27.598Z,17.45
2023-01-31T12:23:28.284Z,15.23
2023-01-31T12:26:25.155Z,15.55
2023-01-31T12:29:50.203Z,17.73
2023-01-31T12:32:54.803Z,14.55
2023-01-31T12:35:54.216Z,16.75
2023-01-31T12:39:07.499Z,16.83
2023-01-31T12:42:07.038Z,16.77
2023-01-31T12:45:09.896Z,16.40
2023-01-31T12:48:19.217Z,16.08
2023-01-31T12:51:22.300Z,18.35
2023-01-31T12:54:34.148Z,16.02
2023-01-31T12:57:35.115Z,17.88
2023-01-31T13:00:35.310Z,17.15
2023-01-31T13:03:51.959Z,18.02
2023-01-31T13:06:43.496Z,18.63
2023-01-31T13:09:34.036Z,18.10
2023-01-31T13:12:26.829Z,19.35
2023-01-31T13:15:28.583Z,19.15
2023-01-31T13:18:19.785Z,18.17
2023-01-31T13:21:11.359Z,20.65
2023-01-31T13:24:03.255Z,20.63
2023-01-31T13:26:57.218Z,20.50
2023-01-31T13:29:52.385Z,19.50
2023-01-31T13:32:46.299Z,19.25
2023-01-31T13:35:42.219Z,22.42
2023-01-31T13:38:38.488Z,19.90
2023-01-31T13:41:30.152Z,23.45
2023-01-31T13:44:18.615Z,20.35
2023-01-31T13:47:15.273Z,22.13
2023-01-31T13:50:09.201Z,21.77
2023-01-31T13:53:02.090Z,20.90
2023-01-31T13:55:52.429Z,20.45
2023-01-31T13:58:42.716Z,24.27
2023-01-31T14:01:35.306Z,23.08
2023-01-31T14:04:39.100Z,22.15
2023-01-31T14:07:28.896Z,21.42
2023-01-31T14:10:30.536Z,22.38
2023-01-31T14:13:38.963Z,20.15
2023-01-31T14:16:41.017Z,21.27
2023-01-31T14:20:14.531Z,19.95
2023-01-31T14:23:32.491Z,22.58
2023-01-31T14:26:37.798Z,19.77
2023-01-31T14:29:28.146Z,19.17
2023-01-31T14:32:25.042Z,17.92
2023-01-31T14:35:37.057Z,19.25
2023-01-31T14:38:37.863Z,17.73
2023-01-31T14:41:42.613Z,19.15
2023-01-31T14:44:41.270Z,17.50
2023-01-31T14:47:43.048Z,20.52
2023-01-31T14:50:40.876Z,20.85
2023-01-31T14:53:49.824Z,20.33
2023-01-31T14:57:01.915Z,19.60
2023-01-31T14:59:57.210Z,18.53
2023-01-31T15:02:54.277Z,18.03
2023-01-31T15:05:49.677Z,17.90
2023-01-31T15:08:46.652Z,18.10
2023-01-31T15:11:42.927Z,19.43
2023-01-31T15:14:37.692Z,19.47
2023-01-31T15:17:38.404Z,18.90
2023-01-31T15:20:37.291Z,19.23
2023-01-31T15:23:29.207Z,20.97
2023-01-31T15:26:19.466Z,17.77
2023-01-31T15:29:08.759Z,19.27
2023-01-31T15:32:05.017Z,17.83
2023-01-31T15:34:58.219Z,17.73
2023-01-31T15:37:49.134Z,16.40
2023-01-31T15:40:37.655Z,17.70
2023-01-31T15:43:26.374Z,17.13
2023-01-31T15:46:21.803Z,17.40
2023-01-31T15:49:38.511Z,17.10
2023-01-31T15:52:28.406Z,18.57
2023-01-31T15:55:20.441Z,22.17
2023-01-31T15:58:09.921Z,19.90
2023-01-31T16:01:00.488Z,20.53
2023-01-31T16:03:54.183Z,21.13
2023-01-31T16:06:44.215Z,21.53
2023-01-31T16:09:34.260Z,18.63
2023-01-31T16:12:22.818Z,19.47
2023-01-31T16:15:20.117Z,17.90
2023-01-31T16:18:11.398Z,18.83
2023-01-31T16:20:59.893Z,21.20
2023-01-31T16:23:59.924Z,22.13
2023-01-31T16:26:56.190Z,19.93
2023-01-31T16:29:47.021Z,19.57
2023-01-31T16:32:41.189Z,22.27
2023-01-31T16:35:30.856Z,21.47
2023-01-31T16:38:26.588Z,20.73
2023-01-31T16:41:45.274Z,20.20
2023-01-31T16:44:38.404Z,20.53
2023-01-31T16:47:35.565Z,19.07
2023-01-31T16:50:42.920Z,23.20
2023-01-31T16:53:33.750Z,20.80
2023-01-31T16:56:26.407Z,20.63
2023-01-31T16:59:40.998Z,21.77
2023-01-31T17:02:31.605Z,18.03
2023-01-31T17:05:24.490Z,18.80
2023-01-31T17:08:17.067Z,20.67
2023-01-31T17:11:06.197Z,21.10
2023-01-31T17:13:56.047Z,20.27
2023-01-31T17:16:44.499Z,18.93
2023-01-31T17:19:32.948Z,19.93
2023-01-31T17:22:22.522Z,20.47
2023-01-31T17:25:18.682Z,21.73
2023-01-31T17:28:07.951Z,22.67
2023-01-31T17:30:58.423Z,19.77
2023-01-31T17:33:47.384Z,19.70
2023-01-31T17:36:35.968Z,21.03
2023-01-31T17:39:24.672Z,22.20
2023-01-31T17:42:19.106Z,21.63
2023-01-31T17:45:13.200Z,23.90
2023-01-31T17:48:03.288Z,23.30
2023-01-31T17:50:53.419Z,24.90
2023-01-31T17:53:49.835Z,28.17
2023-01-31T17:56:41.112Z,26.97
2023-01-31T17:59:29.697Z,23.63
2023-01-31T18:02:18.220Z,24.40
2023-01-31T18:05:08.761Z,25.50
2023-01-31T18:07:59.094Z,26.60
2023-01-31T18:10:47.705Z,24.93
2023-01-31T18:13:38.123Z,30.27
2023-01-31T18:16:27.141Z,26.47
2023-01-31T18:19:15.640Z,29.00
2023-01-31T18:22:05.538Z,26.40
2023-01-31T18:24:54.197Z,24.33
2023-01-31T18:27:42.658Z,26.70
2023-01-31T18:30:31.205Z,26.13
2023-01-31T18:33:20.263Z,27.50
2023-01-31T18:36:13.394Z,26.93
2023-01-31T18:39:03.201Z,26.27
2023-01-31T18:41:51.944Z,26.57
2023-01-31T18:44:40.429Z,29.03
2023-01-31T18:47:28.926Z,25.27
2023-01-31T18:50:17.972Z,25.03
2023-01-31T18:53:06.636Z,25.30
2023-01-31T18:56:04.025Z,25.73
2023-01-31T18:58:54.577Z,28.60
2023-01-31T19:01:43.734Z,27.77
2023-01-31T19:04:32.244Z,26.93
2023-01-31T19:07:20.704Z,28.50
2023-01-31T19:10:10.630Z,33.83
2023-01-31T19:13:00.456Z,34.40
2023-01-31T19:15:48.921Z,31.37
2023-01-31T19:18:37.943Z,30.00
2023-01-31T19:21:27.822Z,27.90
2023-01-31T19:24:16.708Z,33.50
2023-01-31T19:27:05.216Z,26.00
2023-01-31T19:29:55.165Z,28.53
2023-01-31T19:32:43.707Z,31.37
2023-01-31T19:35:32.414Z,29.93
2023-01-31T19:38:20.861Z,32.53
2023-01-31T19:41:10.708Z,32.90
2023-01-31T19:44:00.529Z,28.93
2023-01-31T19:46:51.889Z,29.30
2023-01-31T19:49:40.336Z,33.33
2023-01-31T19:52:31.395Z,30.83
2023-01-31T19:55:20.253Z,28.40
2023-01-31T19:58:09.618Z,29.53
2023-01-31T20:00:58.182Z,31.30
2023-01-31T20:03:48.287Z,31.60
2023-01-31T20:06:36.802Z,29.27
2023-01-31T20:09:25.232Z,30.37
2023-01-31T20:12:13.680Z,28.67
2023-01-31T20:15:02.211Z,26.40
2023-01-31T20:17:50.643Z,28.00
2023-01-31T20:20:40.544Z,26.17
2023-01-31T20:23:29.732Z,27.10
2023-01-31T20:26:19.625Z,29.50
2023-01-31T20:29:09.094Z,25.33
2023-01-31T20:31:57.552Z,27.53
2023-01-31T20:34:46.022Z,24.80
2023-01-31T20:37:35.951Z,25.40
2023-01-31T20:40:24.509Z,23.57
2023-01-31T20:43:13.079Z,24.50
2023-01-31T20:46:05.955Z,24.17
2023-01-31T20:48:54.408Z,24.20
2023-01-31T20:51:42.892Z,25.53
2023-01-31T20:54:34.024Z,24.93
2023-01-31T20:57:22.496Z,26.57
2023-01-31T21:00:12.139Z,25.53
2023-01-31T21:03:00.665Z,23.97
2023-01-31T21:05:50.168Z,24.30
2023-01-31T21:08:39.996Z,21.93
2023-01-31T21:11:29.929Z,21.67
2023-01-31T21:14:18.428Z,22.83
2023-01-31T21:17:06.935Z,23.07
2023-01-31T21:19:55.398Z,22.67
2023-01-31T21:22:44.171Z,23.03
2023-01-31T21:25:32.678Z,24.00
2023-01-31T21:28:27.490Z,22.43
2023-01-31T21:31:17.781Z,22.07
2023-01-31T21:34:06.725Z,23.33
2023-01-31T21:36:57.717Z,21.90
2023-01-31T21:39:46.320Z,22.40
2023-01-31T21:42:34.818Z,20.90
2023-01-31T21:45:39.725Z,21.23
2023-01-31T21:48:32.110Z,21.53
2023-01-31T21:51:24.505Z,19.60
2023-01-31T21:54:13.143Z,18.30
2023-01-31T21:57:01.628Z,19.87
2023-01-31T21:59:50.082Z,20.53
2023-01-31T22:02:39.990Z,18.97
2023-01-31T22:05:28.587Z,16.47
2023-01-31T22:08:17.067Z,16.60
2023-01-31T22:11:07.957Z,16.57
2023-01-31T22:13:56.466Z,18.13
2023-01-31T22:16:45.425Z,15.13
2023-01-31T22:19:35.531Z,17.27
2023-01-31T22:22:24.038Z,14.93
2023-01-31T22:25:12.576Z,14.10
2023-01-31T22:28:01.565Z,12.43
2023-01-31T22:30:54.532Z,13.83
2023-01-31T22:33:44.062Z,14.00
2023-01-31T22:36:34.294Z,13.07
2023-01-31T22:39:23.012Z,14.30
2023-01-31T22:42:11.470Z,12.23
2023-01-31T22:44:59.894Z,13.43
2023-01-31T22:47:48.376Z,12.33
2023-01-31T22:50:36.873Z,13.03
2023-01-31T22:53:27.699Z,13.40
2023-01-31T22:56:18.638Z,12.80
2023-01-31T22:59:09.543Z,11.13
2023-01-31T23:01:58.036Z,11.63
2023-01-31T23:04:46.531Z,11.60
2023-01-31T23:07:34.953Z,11.57
2023-01-31T23:10:25.050Z,11.60
2023-01-31T23:13:13.990Z,11.83
2023-01-31T23:16:03.192Z,12.30
2023-01-31T23:18:51.600Z,10.60
2023-01-31T23:21:42.714Z,11.03
2023-01-31T23:24:31.314Z,10.60
2023-01-31T23:27:21.162Z,11.03
2023-01-31T23:30:11.703Z,11.27
2023-01-31T23:33:34.743Z,10.07
2023-01-31T23:36:23.236Z,10.33
2023-01-31T23:39:11.928Z,10.27
2023-01-31T23:42:00.544Z,10.27
2023-01-31T23:44:50.526Z,9.53
2023-01-31T23:47:42.681Z,8.00
2023-01-31T23:50:31.153Z,8.50
2023-01-31T23:53:19.625Z,8.23
2023-01-31T23:56:08.683Z,7.43
2023-01-31T23:58:57.222Z,7.43
